Time;durP1;ratioP1;P1;durP2;ratioP2;P2;SDS_P1;SDS_P2;PMS_P1;PMS_P2;Temp;Humidity;BMP_temperature;BMP_pressure;BME280_temperature;BME280_humidity;BME280_pressure;Samples;Min_cycle;Max_cycle;Signal;HPM_P1;HPM_P2
2023/05/15 00:00:57;;;;;;;7.13;6.53;;;;;;;;;;5010401;28;20443;-78
2023/05/15 00:03:25;;;;;;;6.90;6.40;;;;;;;;;;5010304;28;20454;-76
2023/05/15 00:05:52;;;;;;;7.73;6.93;;;;;;;;;;5010376;28;20519;-77
2023/05/15 00:08:19;;;;;;;7.57;6.97;;;;;;;;;;5011478;28;20444;-75
2023/05/15 00:10:48;;;;;;;6.93;6.33;;;;;;;;;;5011131;28;20444;-76
2023/05/15 00:13:17;;;;;;;6.83;6.33;;;;;;;;;;5009757;28;21185;-75
2023/05/15 00:15:44;;;;;;;7.30;6.80;;;;;;;;;;5009870;28;20443;-75
2023/05/15 00:18:11;;;;;;;7.03;6.43;;;;;;;;;;5009613;28;20482;-75
2023/05/15 00:20:38;;;;;;;7.07;6.47;;;;;;;;;;5009868;28;20973;-76
2023/05/15 00:23:05;;;;;;;7.97;7.27;;;;;;;;;;5010006;28;20448;-77
2023/05/15 00:25:32;;;;;;;8.00;7.30;;;;;;;;;;5010001;28;20451;-76
2023/05/15 00:28:01;;;;;;;7.90;7.30;;;;;;;;;;5009837;28;20458;-75
2023/05/15 00:30:28;;;;;;;7.07;6.47;;;;;;;;;;5010128;28;20474;-75
2023/05/15 00:32:55;;;;;;;7.77;7.20;;;;;;;;;;5009738;28;20506;-76
2023/05/15 00:35:23;;;;;;;7.43;6.53;;;;;;;;;;5010299;28;20455;-75
2023/05/15 00:37:50;;;;;;;7.00;6.50;;;;;;;;;;5009874;28;20582;-75
2023/05/15 00:40:19;;;;;;;7.30;6.70;;;;;;;;;;5009845;28;20468;-77
2023/05/15 00:42:47;;;;;;;7.40;6.70;;;;;;;;;;5009484;28;20444;-77
2023/05/15 00:45:15;;;;;;;7.33;6.73;;;;;;;;;;5009748;28;20450;-75
2023/05/15 00:47:43;;;;;;;7.37;6.70;;;;;;;;;;5009787;28;20447;-76
2023/05/15 00:50:10;;;;;;;7.20;6.10;;;;;;;;;;5009500;28;20525;-75
2023/05/15 00:52:38;;;;;;;6.67;6.17;;;;;;;;;;5009435;28;20928;-76
2023/05/15 00:55:06;;;;;;;8.83;7.00;;;;;;;;;;5009599;28;20525;-76
2023/05/15 00:57:33;;;;;;;7.13;6.57;;;;;;;;;;5009499;28;21356;-76
2023/05/15 01:00:01;;;;;;;7.17;6.57;;;;;;;;;;5013073;28;20545;-76
2023/05/15 01:02:29;;;;;;;7.13;6.53;;;;;;;;;;5013711;28;20447;-75
2023/05/15 01:04:56;;;;;;;7.33;6.73;;;;;;;;;;5013901;28;20473;-76
2023/05/15 01:07:23;;;;;;;8.80;7.10;;;;;;;;;;5013464;28;20443;-76
2023/05/15 01:09:50;;;;;;;6.57;5.97;;;;;;;;;;5013580;28;20471;-77
2023/05/15 01:12:19;;;;;;;6.73;6.23;;;;;;;;;;5013352;28;20443;-75
2023/05/15 01:14:46;;;;;;;7.50;6.80;;;;;;;;;;5012733;28;20562;-76
2023/05/15 01:17:13;;;;;;;6.90;6.30;;;;;;;;;;5013333;28;20478;-76
2023/05/15 01:19:42;;;;;;;6.97;6.47;;;;;;;;;;5013193;28;20475;-76
2023/05/15 01:22:19;;;;;;;7.90;6.80;;;;;;;;;;5012784;28;20963;-76
2023/05/15 01:25:05;;;;;;;7.50;6.90;;;;;;;;;;5013060;28;20467;-75
2023/05/15 01:27:36;;;;;;;7.70;7.10;;;;;;;;;;5012768;28;20477;-75
2023/05/15 01:30:07;;;;;;;7.37;6.77;;;;;;;;;;5013071;28;20463;-76
2023/05/15 01:32:47;;;;;;;6.87;6.27;;;;;;;;;;5012434;28;21007;-76
2023/05/15 01:35:16;;;;;;;7.07;6.57;;;;;;;;;;5013117;28;20431;-77
2023/05/15 01:37:48;;;;;;;7.43;6.87;;;;;;;;;;5012780;28;20545;-75
2023/05/15 01:40:16;;;;;;;7.83;7.17;;;;;;;;;;5013124;28;20491;-76
2023/05/15 01:42:54;;;;;;;7.40;6.80;;;;;;;;;;5012457;28;20443;-75
2023/05/15 01:45:21;;;;;;;8.00;7.30;;;;;;;;;;5012596;28;20499;-77
2023/05/15 01:47:49;;;;;;;7.93;7.23;;;;;;;;;;5012963;28;20455;-75
2023/05/15 01:50:17;;;;;;;7.77;7.07;;;;;;;;;;5012930;28;20856;-76
2023/05/15 01:52:46;;;;;;;8.00;7.30;;;;;;;;;;5015050;28;20443;-76
2023/05/15 01:55:14;;;;;;;7.70;7.10;;;;;;;;;;5015827;28;20447;-76
2023/05/15 01:57:42;;;;;;;8.00;7.30;;;;;;;;;;5012732;28;20482;-76
2023/05/15 02:00:12;;;;;;;8.03;7.30;;;;;;;;;;5012649;28;20467;-75
2023/05/15 02:02:39;;;;;;;7.87;7.27;;;;;;;;;;5012302;28;21274;-76
2023/05/15 02:05:08;;;;;;;8.17;7.47;;;;;;;;;;5012388;28;20454;-77
2023/05/15 02:07:35;;;;;;;7.93;7.33;;;;;;;;;;5012079;28;20860;-77
2023/05/15 02:10:02;;;;;;;8.33;7.63;;;;;;;;;;5011451;28;20475;-75
2023/05/15 02:12:29;;;;;;;8.30;7.60;;;;;;;;;;5012004;28;20447;-75
2023/05/15 02:14:58;;;;;;;8.37;7.67;;;;;;;;;;5011911;28;20497;-76
2023/05/15 02:17:28;;;;;;;7.90;7.30;;;;;;;;;;5012284;28;20483;-75
2023/05/15 02:19:55;;;;;;;9.20;8.40;;;;;;;;;;5012165;28;20472;-75
2023/05/15 02:22:22;;;;;;;8.10;7.40;;;;;;;;;;5011752;28;20781;-76
2023/05/15 02:24:49;;;;;;;9.10;8.30;;;;;;;;;;5011691;28;20509;-75
2023/05/15 02:27:21;;;;;;;9.13;8.33;;;;;;;;;;5012202;28;20451;-75
2023/05/15 02:30:06;;;;;;;10.17;9.27;;;;;;;;;;5012140;28;20561;-75
2023/05/15 02:32:38;;;;;;;8.97;8.17;;;;;;;;;;5003350;28;21214;-75
2023/05/15 02:35:12;;;;;;;9.83;8.90;;;;;;;;;;5015919;28;20466;-77
2023/05/15 02:37:40;;;;;;;9.40;8.60;;;;;;;;;;5015906;28;20532;-75
2023/05/15 02:40:09;;;;;;;9.30;8.40;;;;;;;;;;5015210;28;20502;-77
2023/05/15 02:42:36;;;;;;;9.27;8.47;;;;;;;;;;5018776;28;20451;-76
2023/05/15 02:45:04;;;;;;;7.60;6.90;;;;;;;;;;5012863;28;20518;-77
2023/05/15 02:47:31;;;;;;;7.60;7.00;;;;;;;;;;5011779;28;20444;-75
2023/05/15 02:50:00;;;;;;;7.40;6.80;;;;;;;;;;5011455;28;20547;-76
2023/05/15 02:52:27;;;;;;;7.07;6.57;;;;;;;;;;5011661;28;20444;-75
2023/05/15 02:54:54;;;;;;;7.13;6.43;;;;;;;;;;5013720;28;20447;-74
2023/05/15 02:57:21;;;;;;;7.47;6.87;;;;;;;;;;5013227;28;20451;-76
2023/05/15 02:59:48;;;;;;;7.67;6.70;;;;;;;;;;5011423;28;20476;-75
2023/05/15 03:02:15;;;;;;;7.07;6.47;;;;;;;;;;5011931;28;20447;-75
2023/05/15 03:04:42;;;;;;;7.37;6.77;;;;;;;;;;5011199;28;20447;-75
2023/05/15 03:07:10;;;;;;;7.70;7.10;;;;;;;;;;5012175;28;20448;-75
2023/05/15 03:09:37;;;;;;;7.40;6.70;;;;;;;;;;5011543;28;20471;-75
2023/05/15 03:12:05;;;;;;;9.30;6.47;;;;;;;;;;5011509;28;20440;-75
2023/05/15 03:14:32;;;;;;;7.73;7.03;;;;;;;;;;5011220;28;20448;-75
2023/05/15 03:16:59;;;;;;;7.00;6.40;;;;;;;;;;5011386;28;20456;-75
2023/05/15 03:19:26;;;;;;;7.67;7.07;;;;;;;;;;5011085;28;20606;-76
2023/05/15 03:21:53;;;;;;;7.13;6.43;;;;;;;;;;5010242;28;20483;-75
2023/05/15 03:24:22;;;;;;;6.70;6.20;;;;;;;;;;5010749;28;20444;-75
2023/05/15 03:26:49;;;;;;;7.33;6.73;;;;;;;;;;5010811;28;20505;-76
2023/05/15 03:29:16;;;;;;;7.60;7.00;;;;;;;;;;5010605;28;20459;-75
2023/05/15 03:31:43;;;;;;;6.67;6.07;;;;;;;;;;5012090;28;20550;-77
2023/05/15 03:34:10;;;;;;;6.87;6.30;;;;;;;;;;5010877;28;20941;-75
2023/05/15 03:36:37;;;;;;;6.97;6.37;;;;;;;;;;5010126;28;20447;-75
2023/05/15 03:39:04;;;;;;;6.20;5.73;;;;;;;;;;5010708;28;20483;-76
2023/05/15 03:41:32;;;;;;;7.53;6.93;;;;;;;;;;5010895;28;20534;-76
2023/05/15 03:43:59;;;;;;;7.63;6.50;;;;;;;;;;5010387;28;20458;-75
2023/05/15 03:46:26;;;;;;;6.80;6.30;;;;;;;;;;5010782;28;20501;-76
2023/05/15 03:48:54;;;;;;;7.70;7.00;;;;;;;;;;5010625;28;20548;-76
2023/05/15 03:51:22;;;;;;;7.47;6.77;;;;;;;;;;5010636;28;20451;-76
2023/05/15 03:53:49;;;;;;;6.87;6.37;;;;;;;;;;5010090;28;20451;-76
2023/05/15 03:56:16;;;;;;;6.97;6.30;;;;;;;;;;5010620;28;20455;-74
2023/05/15 03:58:45;;;;;;;6.90;6.40;;;;;;;;;;5010158;28;20834;-77
2023/05/15 04:01:12;;;;;;;7.37;6.67;;;;;;;;;;5011105;28;20447;-76
2023/05/15 04:03:39;;;;;;;7.57;6.87;;;;;;;;;;5010415;28;20805;-76
2023/05/15 04:06:06;;;;;;;6.67;6.17;;;;;;;;;;5010616;28;20443;-76
2023/05/15 04:08:33;;;;;;;7.70;7.00;;;;;;;;;;5010336;28;20443;-75
2023/05/15 04:11:00;;;;;;;7.60;6.90;;;;;;;;;;5010731;28;20443;-77
2023/05/15 04:13:27;;;;;;;8.03;7.33;;;;;;;;;;5011503;28;20451;-76
2023/05/15 04:15:57;;;;;;;8.10;7.30;;;;;;;;;;5011157;28;20451;-76
2023/05/15 04:18:24;;;;;;;7.53;6.93;;;;;;;;;;5010160;28;21234;-76
2023/05/15 04:20:51;;;;;;;8.03;7.23;;;;;;;;;;5010180;28;20454;-76
2023/05/15 04:23:18;;;;;;;7.30;6.43;;;;;;;;;;5010179;28;20443;-75
2023/05/15 04:25:45;;;;;;;7.27;6.67;;;;;;;;;;5009654;28;20447;-76
2023/05/15 04:28:12;;;;;;;8.00;7.20;;;;;;;;;;5010502;28;20612;-77
2023/05/15 04:30:39;;;;;;;7.07;6.47;;;;;;;;;;5010360;28;20482;-76
2023/05/15 04:33:08;;;;;;;7.30;6.70;;;;;;;;;;5012271;28;20459;-76
2023/05/15 04:35:35;;;;;;;7.80;7.20;;;;;;;;;;5014440;28;20460;-76
2023/05/15 04:38:02;;;;;;;10.63;8.27;;;;;;;;;;5014509;28;20901;-76
2023/05/15 04:40:29;;;;;;;8.53;7.80;;;;;;;;;;5014593;28;20483;-76
2023/05/15 04:42:56;;;;;;;8.47;7.67;;;;;;;;;;5014278;28;20451;-76
2023/05/15 04:45:24;;;;;;;8.47;7.67;;;;;;;;;;5014510;28;20443;-76
2023/05/15 04:47:51;;;;;;;8.83;8.10;;;;;;;;;;5014254;28;20447;-76
2023/05/15 04:50:19;;;;;;;8.10;7.50;;;;;;;;;;5013758;28;20463;-76
2023/05/15 04:52:47;;;;;;;8.40;7.60;;;;;;;;;;5014000;28;20439;-77
2023/05/15 04:55:14;;;;;;;8.67;7.90;;;;;;;;;;5013909;28;20451;-76
2023/05/15 04:57:41;;;;;;;8.83;8.07;;;;;;;;;;5013618;28;20451;-76
2023/05/15 05:00:11;;;;;;;8.90;8.20;;;;;;;;;;5014814;28;20475;-76
2023/05/15 05:02:38;;;;;;;8.87;7.93;;;;;;;;;;5015074;28;20446;-75
2023/05/15 05:05:06;;;;;;;7.93;7.33;;;;;;;;;;5014666;28;20497;-76
2023/05/15 05:07:34;;;;;;;8.93;8.10;;;;;;;;;;5015061;28;21009;-76
2023/05/15 05:10:01;;;;;;;9.60;8.70;;;;;;;;;;5014672;28;20467;-77
2023/05/15 05:12:28;;;;;;;8.80;8.00;;;;;;;;;;5014371;28;20953;-77
2023/05/15 05:14:55;;;;;;;8.53;7.83;;;;;;;;;;5014184;28;20451;-77
2023/05/15 05:17:22;;;;;;;8.90;8.20;;;;;;;;;;5014032;28;20455;-76
2023/05/15 05:19:49;;;;;;;9.90;9.20;;;;;;;;;;5013844;28;20491;-75
2023/05/15 05:22:16;;;;;;;9.60;8.60;;;;;;;;;;5015148;28;20451;-75
2023/05/15 05:24:45;;;;;;;9.07;8.30;;;;;;;;;;5013714;28;20509;-75
2023/05/15 05:27:12;;;;;;;8.33;7.63;;;;;;;;;;5013453;28;20455;-76
2023/05/15 05:29:39;;;;;;;9.10;8.40;;;;;;;;;;5014191;28;20459;-77
2023/05/15 05:32:07;;;;;;;9.50;8.70;;;;;;;;;;5014009;28;20440;-77
2023/05/15 05:34:34;;;;;;;9.63;8.60;;;;;;;;;;5013597;28;20451;-76
2023/05/15 05:37:01;;;;;;;9.30;8.53;;;;;;;;;;5013763;28;20448;-76
2023/05/15 05:39:28;;;;;;;9.53;8.83;;;;;;;;;;5013356;28;21038;-75
2023/05/15 05:41:57;;;;;;;8.03;7.30;;;;;;;;;;5013512;28;20830;-76
2023/05/15 05:44:24;;;;;;;9.23;8.43;;;;;;;;;;5012416;28;20502;-76
2023/05/15 05:46:52;;;;;;;9.63;8.70;;;;;;;;;;5013570;28;20459;-78
2023/05/15 05:49:19;;;;;;;9.60;8.70;;;;;;;;;;5013683;28;20471;-77
2023/05/15 05:51:46;;;;;;;9.47;8.77;;;;;;;;;;5013232;28;20454;-76
2023/05/15 05:54:14;;;;;;;10.73;9.87;;;;;;;;;;5013484;28;20443;-77
2023/05/15 05:56:41;;;;;;;10.13;9.13;;;;;;;;;;5013620;28;20453;-78
2023/05/15 05:59:10;;;;;;;11.20;9.90;;;;;;;;;;5013124;28;20537;-77
2023/05/15 06:01:37;;;;;;;10.23;9.30;;;;;;;;;;5013349;28;20859;-77
2023/05/15 06:04:04;;;;;;;10.27;9.37;;;;;;;;;;5013280;28;20509;-77
2023/05/15 06:06:31;;;;;;;9.90;9.00;;;;;;;;;;5013525;28;20498;-77
2023/05/15 06:08:58;;;;;;;10.90;9.80;;;;;;;;;;5012871;28;20628;-77
2023/05/15 06:11:25;;;;;;;10.90;9.83;;;;;;;;;;5013041;28;20491;-77
2023/05/15 06:13:52;;;;;;;11.10;10.10;;;;;;;;;;5012587;28;20941;-75
2023/05/15 06:16:21;;;;;;;9.00;8.20;;;;;;;;;;5012630;28;20447;-78
2023/05/15 06:18:48;;;;;;;10.50;9.60;;;;;;;;;;5012908;28;21063;-76
2023/05/15 06:21:15;;;;;;;10.43;9.43;;;;;;;;;;5013371;28;20451;-77
2023/05/15 06:23:42;;;;;;;10.83;9.83;;;;;;;;;;5012473;28;20443;-75
2023/05/15 06:26:09;;;;;;;10.80;9.90;;;;;;;;;;5012401;28;20546;-76
2023/05/15 06:28:36;;;;;;;9.63;8.90;;;;;;;;;;5012170;28;20447;-76
2023/05/15 06:31:03;;;;;;;9.53;8.70;;;;;;;;;;5012440;28;20439;-77
2023/05/15 06:33:31;;;;;;;10.70;9.80;;;;;;;;;;5012083;28;20863;-77
2023/05/15 06:35:58;;;;;;;9.60;8.90;;;;;;;;;;5012618;28;20474;-76
2023/05/15 06:38:25;;;;;;;9.90;9.10;;;;;;;;;;5012467;28;20825;-76
2023/05/15 06:40:52;;;;;;;11.43;8.93;;;;;;;;;;5012660;28;20478;-77
2023/05/15 06:43:19;;;;;;;9.70;8.90;;;;;;;;;;5012086;28;21002;-75
2023/05/15 06:45:46;;;;;;;9.47;8.60;;;;;;;;;;5012476;28;20482;-77
2023/05/15 06:48:13;;;;;;;8.20;7.60;;;;;;;;;;5012014;28;20462;-76
2023/05/15 06:50:42;;;;;;;8.40;7.43;;;;;;;;;;5011568;28;21001;-78
2023/05/15 06:53:09;;;;;;;8.30;7.67;;;;;;;;;;5012058;28;20593;-77
2023/05/15 06:55:36;;;;;;;7.60;7.00;;;;;;;;;;5011731;28;20951;-76
2023/05/15 06:58:04;;;;;;;8.17;7.47;;;;;;;;;;5011945;28;20501;-77
2023/05/15 07:00:31;;;;;;;7.87;7.27;;;;;;;;;;5011549;28;20548;-77
2023/05/15 07:02:58;;;;;;;7.30;6.80;;;;;;;;;;5010965;28;20443;-77
2023/05/15 07:05:25;;;;;;;6.93;6.33;;;;;;;;;;5011739;28;20502;-76
2023/05/15 07:07:54;;;;;;;7.40;6.80;;;;;;;;;;5011889;28;20448;-76
2023/05/15 07:10:21;;;;;;;7.00;6.50;;;;;;;;;;5011808;28;21004;-78
2023/05/15 07:12:48;;;;;;;7.00;6.50;;;;;;;;;;5011976;28;20509;-78
2023/05/15 07:15:16;;;;;;;6.40;6.00;;;;;;;;;;5012081;28;20455;-77
2023/05/15 07:17:43;;;;;;;7.03;6.43;;;;;;;;;;5012273;28;20559;-77
2023/05/15 07:20:11;;;;;;;6.70;6.10;;;;;;;;;;5012707;28;20561;-77
2023/05/15 07:22:38;;;;;;;6.00;5.50;;;;;;;;;;5012594;28;20498;-78
2023/05/15 07:25:07;;;;;;;6.53;6.03;;;;;;;;;;5011631;28;20960;-76
2023/05/15 07:27:34;;;;;;;5.80;5.40;;;;;;;;;;5011808;28;20529;-76
2023/05/15 07:30:02;;;;;;;6.33;5.23;;;;;;;;;;5011211;28;20459;-75
2023/05/15 07:32:30;;;;;;;6.40;5.87;;;;;;;;;;5011158;28;20456;-77
2023/05/15 07:34:57;;;;;;;7.70;6.90;;;;;;;;;;5011346;28;20475;-77
2023/05/15 07:37:24;;;;;;;6.13;5.73;;;;;;;;;;5011103;28;20860;-75
2023/05/15 07:39:51;;;;;;;5.90;5.50;;;;;;;;;;5011177;28;20546;-77
2023/05/15 07:42:19;;;;;;;6.07;5.47;;;;;;;;;;5011124;28;20530;-76
2023/05/15 07:44:46;;;;;;;5.63;5.23;;;;;;;;;;5011161;28;20968;-76
2023/05/15 07:47:13;;;;;;;6.93;6.33;;;;;;;;;;5011323;28;20447;-77
2023/05/15 07:49:40;;;;;;;6.53;6.13;;;;;;;;;;5012381;28;20566;-77
2023/05/15 07:52:08;;;;;;;7.00;6.50;;;;;;;;;;5012742;28;20474;-78
2023/05/15 07:54:35;;;;;;;6.17;5.67;;;;;;;;;;5011415;28;20455;-77
2023/05/15 07:57:02;;;;;;;5.97;5.57;;;;;;;;;;5012444;28;20477;-78
2023/05/15 07:59:30;;;;;;;5.57;5.27;;;;;;;;;;5012222;28;20487;-76
2023/05/15 08:01:57;;;;;;;5.87;5.47;;;;;;;;;;5011516;28;20534;-76
2023/05/15 08:04:24;;;;;;;5.90;5.50;;;;;;;;;;5012783;28;20457;-77
2023/05/15 08:06:51;;;;;;;5.67;5.30;;;;;;;;;;5013563;28;20981;-77
2023/05/15 08:09:18;;;;;;;4.23;4.03;;;;;;;;;;5014876;28;20459;-77
2023/05/15 08:11:45;;;;;;;4.77;4.43;;;;;;;;;;5011771;28;20653;-77
2023/05/15 08:14:12;;;;;;;5.30;4.80;;;;;;;;;;5010228;28;20509;-76
2023/05/15 08:16:41;;;;;;;4.50;4.20;;;;;;;;;;5010979;28;20443;-76
2023/05/15 08:19:09;;;;;;;4.87;4.57;;;;;;;;;;5010179;28;20545;-76
2023/05/15 08:21:36;;;;;;;5.47;5.07;;;;;;;;;;5010629;28;20447;-77
2023/05/15 08:24:03;;;;;;;4.97;4.47;;;;;;;;;;5010164;28;20543;-75
2023/05/15 08:26:30;;;;;;;5.17;4.67;;;;;;;;;;5010757;28;20513;-79
2023/05/15 08:28:57;;;;;;;7.10;4.70;;;;;;;;;;5010463;28;20532;-78
2023/05/15 08:31:24;;;;;;;4.97;4.57;;;;;;;;;;5010896;28;20447;-77
2023/05/15 08:33:52;;;;;;;5.00;4.60;;;;;;;;;;5010365;28;20972;-75
2023/05/15 08:36:20;;;;;;;4.90;4.60;;;;;;;;;;5010778;28;20471;-76
2023/05/15 08:38:47;;;;;;;4.90;4.00;;;;;;;;;;5010430;28;20471;-78
2023/05/15 08:41:22;;;;;;;4.40;4.10;;;;;;;;;;5010433;28;20491;-76
2023/05/15 08:43:50;;;;;;;5.07;4.77;;;;;;;;;;5009980;28;20948;-76
2023/05/15 08:46:17;;;;;;;3.80;3.60;;;;;;;;;;5010888;28;20490;-76
2023/05/15 08:48:45;;;;;;;4.67;4.37;;;;;;;;;;5011875;28;20459;-77
2023/05/15 08:51:14;;;;;;;4.27;4.00;;;;;;;;;;5012105;28;20972;-78
2023/05/15 08:53:41;;;;;;;4.53;4.13;;;;;;;;;;5012508;28;20479;-77
2023/05/15 08:56:08;;;;;;;5.20;4.80;;;;;;;;;;5010431;28;20443;-75
2023/05/15 08:58:35;;;;;;;5.20;4.80;;;;;;;;;;5010204;28;20452;-76
2023/05/15 09:01:03;;;;;;;4.27;4.07;;;;;;;;;;5010333;28;20486;-76
2023/05/15 09:03:30;;;;;;;6.07;4.83;;;;;;;;;;5010223;28;20514;-75
2023/05/15 09:05:58;;;;;;;5.00;4.50;;;;;;;;;;5011082;28;20442;-77
2023/05/15 09:08:29;;;;;;;4.77;4.47;;;;;;;;;;5010202;28;20478;-76
2023/05/15 09:10:57;;;;;;;6.43;5.07;;;;;;;;;;5010605;28;20451;-77
2023/05/15 09:13:24;;;;;;;5.03;4.73;;;;;;;;;;5009607;28;21289;-77
2023/05/15 09:15:51;;;;;;;6.30;5.87;;;;;;;;;;5010400;28;20453;-75
2023/05/15 09:18:18;;;;;;;5.17;4.87;;;;;;;;;;5010462;28;20443;-76
2023/05/15 09:20:45;;;;;;;5.37;4.97;;;;;;;;;;5013047;28;20730;-76
2023/05/15 09:23:23;;;;;;;5.00;4.70;;;;;;;;;;5014178;28;20493;-77
2023/05/15 09:25:54;;;;;;;5.27;4.97;;;;;;;;;;5013803;28;20439;-77
2023/05/15 09:28:29;;;;;;;5.70;5.20;;;;;;;;;;5013274;28;20451;-76
2023/05/15 09:31:00;;;;;;;5.70;5.00;;;;;;;;;;5013737;28;20450;-76
2023/05/15 09:33:32;;;;;;;4.63;4.33;;;;;;;;;;5013557;28;20559;-75
2023/05/15 09:35:59;;;;;;;5.63;5.23;;;;;;;;;;5013807;28;20454;-77
2023/05/15 09:38:26;;;;;;;4.70;4.40;;;;;;;;;;5013873;28;20448;-77
2023/05/15 09:41:03;;;;;;;5.03;4.60;;;;;;;;;;5014057;28;20483;-76
2023/05/15 09:43:30;;;;;;;4.70;4.40;;;;;;;;;;5013122;28;20937;-77
2023/05/15 09:45:57;;;;;;;4.93;4.50;;;;;;;;;;5018456;28;20440;-78
2023/05/15 09:48:24;;;;;;;5.00;4.60;;;;;;;;;;5023607;28;20459;-76
2023/05/15 09:50:52;;;;;;;5.20;4.80;;;;;;;;;;5022403;28;20443;-77
2023/05/15 09:53:19;;;;;;;5.17;4.77;;;;;;;;;;5014461;28;20451;-77
2023/05/15 09:55:48;;;;;;;4.43;4.13;;;;;;;;;;5013204;28;20509;-76
2023/05/15 09:58:17;;;;;;;6.27;4.53;;;;;;;;;;5013091;28;20527;-75
2023/05/15 10:00:45;;;;;;;5.07;4.67;;;;;;;;;;5013138;28;20483;-77
2023/05/15 10:03:12;;;;;;;5.17;4.70;;;;;;;;;;5012317;28;20494;-75
2023/05/15 10:05:40;;;;;;;5.87;5.00;;;;;;;;;;5013027;28;20798;-77
2023/05/15 10:08:07;;;;;;;5.00;4.70;;;;;;;;;;5013241;28;20443;-76
2023/05/15 10:10:34;;;;;;;4.47;4.10;;;;;;;;;;5012757;28;20517;-76
2023/05/15 10:13:03;;;;;;;4.13;3.70;;;;;;;;;;5012439;28;20454;-76
2023/05/15 10:15:32;;;;;;;4.20;3.90;;;;;;;;;;5013084;28;20475;-76
2023/05/15 10:17:59;;;;;;;4.23;4.00;;;;;;;;;;5012894;28;20999;-77
2023/05/15 10:20:27;;;;;;;5.07;4.67;;;;;;;;;;5012751;28;20573;-76
2023/05/15 10:22:54;;;;;;;4.77;4.47;;;;;;;;;;5012493;28;20483;-78
2023/05/15 10:25:28;;;;;;;4.90;4.40;;;;;;;;;;5013129;28;20479;-78
2023/05/15 10:27:55;;;;;;;4.70;4.30;;;;;;;;;;5012897;28;20546;-78
2023/05/15 10:30:22;;;;;;;5.20;4.90;;;;;;;;;;5012222;28;20471;-78
2023/05/15 10:32:51;;;;;;;4.67;4.37;;;;;;;;;;5012638;28;20454;-75
2023/05/15 10:35:18;;;;;;;4.80;4.47;;;;;;;;;;5012707;28;20450;-76
2023/05/15 10:37:47;;;;;;;4.63;4.10;;;;;;;;;;5012399;28;20887;-74
2023/05/15 10:40:15;;;;;;;3.90;3.60;;;;;;;;;;5012481;28;20545;-77
2023/05/15 10:42:43;;;;;;;4.10;3.80;;;;;;;;;;5011901;28;20440;-78
2023/05/15 10:45:10;;;;;;;4.17;3.87;;;;;;;;;;5012124;28;20451;-75
2023/05/15 10:47:38;;;;;;;3.83;3.43;;;;;;;;;;5012272;28;20513;-75
2023/05/15 10:50:07;;;;;;;3.67;3.47;;;;;;;;;;5011837;28;20463;-76
2023/05/15 10:52:34;;;;;;;4.00;3.33;;;;;;;;;;5011742;28;20443;-76
2023/05/15 10:55:03;;;;;;;3.20;3.00;;;;;;;;;;5012025;28;20443;-76
2023/05/15 10:57:30;;;;;;;4.00;3.60;;;;;;;;;;5012826;28;20451;-76
2023/05/15 10:59:57;;;;;;;3.27;3.07;;;;;;;;;;5012008;28;20556;-77
2023/05/15 11:02:25;;;;;;;3.83;3.53;;;;;;;;;;5011877;28;20933;-76
2023/05/15 11:04:56;;;;;;;3.70;3.40;;;;;;;;;;5011915;28;20468;-76
2023/05/15 11:07:25;;;;;;;3.80;3.57;;;;;;;;;;5011819;28;20451;-77
2023/05/15 11:09:52;;;;;;;4.10;3.80;;;;;;;;;;5016780;28;20464;-77
2023/05/15 11:12:20;;;;;;;3.60;3.40;;;;;;;;;;5019642;28;20444;-76
2023/05/15 11:15:02;;;;;;;3.50;3.30;;;;;;;;;;5018228;28;20444;-75
2023/05/15 11:17:32;;;;;;;4.33;4.03;;;;;;;;;;5011692;28;20454;-77
2023/05/15 11:20:00;;;;;;;3.63;3.43;;;;;;;;;;5011557;28;20455;-75
2023/05/15 11:22:30;;;;;;;4.27;3.97;;;;;;;;;;5012088;28;20494;-76
2023/05/15 11:24:59;;;;;;;4.03;3.53;;;;;;;;;;5011770;28;20460;-77
2023/05/15 11:27:27;;;;;;;3.83;3.63;;;;;;;;;;5011749;28;20485;-77
2023/05/15 11:30:10;;;;;;;3.37;3.17;;;;;;;;;;5011840;28;20502;-75
2023/05/15 11:32:44;;;;;;;3.53;3.30;;;;;;;;;;5011255;28;20448;-76
2023/05/15 11:35:11;;;;;;;3.47;3.27;;;;;;;;;;5012181;28;20481;-75
2023/05/15 11:37:42;;;;;;;3.20;3.10;;;;;;;;;;5014176;28;20475;-77
2023/05/15 11:40:13;;;;;;;3.63;3.33;;;;;;;;;;5016409;28;21015;-77
2023/05/15 11:42:40;;;;;;;5.50;3.33;;;;;;;;;;5017808;28;20456;-77
2023/05/15 11:45:08;;;;;;;3.80;3.50;;;;;;;;;;5017106;28;20448;-78
2023/05/15 11:47:36;;;;;;;3.70;3.50;;;;;;;;;;5011768;28;20447;-77
2023/05/15 11:50:04;;;;;;;3.40;3.23;;;;;;;;;;5011834;28;20467;-77
2023/05/15 11:52:32;;;;;;;3.40;3.20;;;;;;;;;;5011388;28;20550;-76
2023/05/15 11:55:01;;;;;;;3.53;3.33;;;;;;;;;;5011197;28;20439;-76
2023/05/15 11:57:28;;;;;;;3.93;3.73;;;;;;;;;;5011760;28;20451;-77
2023/05/15 11:59:55;;;;;;;3.77;3.57;;;;;;;;;;5010931;28;20466;-76
2023/05/15 12:02:23;;;;;;;3.60;3.40;;;;;;;;;;5011179;28;20530;-78
2023/05/15 12:04:50;;;;;;;3.70;3.40;;;;;;;;;;5011331;28;20551;-75
2023/05/15 12:07:18;;;;;;;4.20;3.90;;;;;;;;;;5011065;28;20561;-76
2023/05/15 12:09:51;;;;;;;4.10;3.73;;;;;;;;;;5010620;28;20549;-76
2023/05/15 12:12:20;;;;;;;3.73;3.53;;;;;;;;;;5010733;28;20470;-76
2023/05/15 12:14:47;;;;;;;3.80;3.57;;;;;;;;;;5011096;28;20995;-77
2023/05/15 12:17:14;;;;;;;4.03;3.73;;;;;;;;;;5010930;28;20455;-76
2023/05/15 12:19:41;;;;;;;3.77;3.57;;;;;;;;;;5011088;28;20463;-76
2023/05/15 12:22:08;;;;;;;3.37;3.17;;;;;;;;;;5010803;28;20483;-77
2023/05/15 12:24:38;;;;;;;3.40;3.20;;;;;;;;;;5010590;28;20447;-76
2023/05/15 12:27:05;;;;;;;3.50;3.30;;;;;;;;;;5010939;28;20972;-76
2023/05/15 12:29:34;;;;;;;4.13;3.83;;;;;;;;;;5011007;28;20505;-75
2023/05/15 12:32:01;;;;;;;3.60;3.40;;;;;;;;;;5010568;28;20834;-77
2023/05/15 12:34:28;;;;;;;4.17;3.87;;;;;;;;;;5010288;28;20459;-77
2023/05/15 12:36:58;;;;;;;3.50;3.30;;;;;;;;;;5010902;28;20446;-75
2023/05/15 12:39:25;;;;;;;3.20;2.97;;;;;;;;;;5010661;28;20471;-75
2023/05/15 12:41:53;;;;;;;3.27;3.07;;;;;;;;;;5010386;28;20490;-77
2023/05/15 12:44:20;;;;;;;3.63;3.33;;;;;;;;;;5010517;28;20447;-77
2023/05/15 12:46:48;;;;;;;4.30;4.10;;;;;;;;;;5010743;28;20501;-75
2023/05/15 12:49:21;;;;;;;3.90;3.60;;;;;;;;;;5010266;28;20471;-78
2023/05/15 12:51:48;;;;;;;3.77;3.57;;;;;;;;;;5009832;28;20427;-74
2023/05/15 12:54:19;;;;;;;3.47;3.27;;;;;;;;;;5012150;28;20538;-75
2023/05/15 12:56:46;;;;;;;3.70;3.40;;;;;;;;;;5013854;28;20442;-75
2023/05/15 12:59:13;;;;;;;4.27;3.90;;;;;;;;;;5014546;28;20478;-75
2023/05/15 13:01:41;;;;;;;3.97;3.70;;;;;;;;;;5014230;28;20474;-77
2023/05/15 13:04:10;;;;;;;3.83;3.43;;;;;;;;;;5014107;28;20493;-76
2023/05/15 13:06:39;;;;;;;3.57;3.27;;;;;;;;;;5014472;28;20443;-77
2023/05/15 13:09:06;;;;;;;2.80;2.70;;;;;;;;;;5016752;28;20509;-76
2023/05/15 13:11:34;;;;;;;3.47;3.27;;;;;;;;;;5017927;28;20451;-75
2023/05/15 13:14:01;;;;;;;3.90;3.60;;;;;;;;;;5018718;28;20486;-75
2023/05/15 13:16:31;;;;;;;3.43;3.23;;;;;;;;;;5018568;28;20545;-75
2023/05/15 13:18:59;;;;;;;4.07;3.87;;;;;;;;;;5018920;28;20471;-76
2023/05/15 13:21:28;;;;;;;3.67;3.47;;;;;;;;;;5018855;28;20499;-75
2023/05/15 13:23:56;;;;;;;4.43;4.07;;;;;;;;;;5018829;28;20477;-75
2023/05/15 13:26:24;;;;;;;4.07;3.77;;;;;;;;;;5018214;28;20489;-76
2023/05/15 13:28:53;;;;;;;3.80;3.60;;;;;;;;;;5017978;28;20487;-76
2023/05/15 13:31:21;;;;;;;5.17;4.77;;;;;;;;;;5018150;28;20493;-75
2023/05/15 13:33:49;;;;;;;4.60;4.20;;;;;;;;;;5019577;28;20435;-76
2023/05/15 13:36:18;;;;;;;4.90;4.60;;;;;;;;;;5019628;28;20451;-75
2023/05/15 13:38:48;;;;;;;4.67;4.37;;;;;;;;;;5018000;28;20452;-74
2023/05/15 13:41:16;;;;;;;4.97;4.67;;;;;;;;;;5015458;28;20474;-76
2023/05/15 13:43:46;;;;;;;4.00;3.80;;;;;;;;;;5015190;28;20447;-74
2023/05/15 13:46:14;;;;;;;5.33;4.90;;;;;;;;;;5014475;28;20479;-74
2023/05/15 13:48:47;;;;;;;5.67;5.23;;;;;;;;;;5014853;28;20485;-75
2023/05/15 13:51:15;;;;;;;5.43;4.90;;;;;;;;;;5014088;28;20455;-77
2023/05/15 13:53:43;;;;;;;5.60;5.20;;;;;;;;;;5014360;28;20518;-75
2023/05/15 13:56:13;;;;;;;5.30;4.90;;;;;;;;;;5014611;28;20455;-76
2023/05/15 13:58:41;;;;;;;6.37;5.93;;;;;;;;;;5014360;28;20456;-76
2023/05/15 14:01:09;;;;;;;5.00;4.60;;;;;;;;;;5015079;28;20467;-74
2023/05/15 14:03:37;;;;;;;5.60;5.20;;;;;;;;;;5014224;28;20538;-75
2023/05/15 14:06:05;;;;;;;4.97;4.67;;;;;;;;;;5013301;28;20455;-76
2023/05/15 14:08:33;;;;;;;5.47;4.97;;;;;;;;;;5014060;28;20534;-75
2023/05/15 14:11:01;;;;;;;4.90;4.50;;;;;;;;;;5014275;28;20451;-76
2023/05/15 14:13:31;;;;;;;5.20;4.90;;;;;;;;;;5016324;28;20489;-76
2023/05/15 14:15:59;;;;;;;5.50;5.20;;;;;;;;;;5017012;28;20443;-75
2023/05/15 14:18:27;;;;;;;5.80;5.40;;;;;;;;;;5017502;28;20463;-75
2023/05/15 14:20:55;;;;;;;5.33;4.93;;;;;;;;;;5017276;28;20455;-76
2023/05/15 14:23:23;;;;;;;4.90;4.60;;;;;;;;;;5018690;28;21046;-76
2023/05/15 14:25:51;;;;;;;5.43;4.97;;;;;;;;;;5018310;28;20467;-75
2023/05/15 14:28:20;;;;;;;4.47;4.17;;;;;;;;;;5018361;28;20458;-75
2023/05/15 14:30:50;;;;;;;4.83;4.53;;;;;;;;;;5018196;28;20526;-75
2023/05/15 14:33:20;;;;;;;5.07;4.77;;;;;;;;;;5017308;28;20482;-75
2023/05/15 14:35:48;;;;;;;5.37;4.87;;;;;;;;;;5018521;28;20462;-77
2023/05/15 14:38:16;;;;;;;5.43;4.90;;;;;;;;;;5017556;28;20929;-76
2023/05/15 14:40:43;;;;;;;6.23;5.40;;;;;;;;;;5017645;28;20478;-76
2023/05/15 14:43:11;;;;;;;7.47;5.23;;;;;;;;;;5014400;28;20483;-75
2023/05/15 14:45:39;;;;;;;5.70;4.90;;;;;;;;;;5015598;28;20861;-77
2023/05/15 14:48:10;;;;;;;5.43;5.13;;;;;;;;;;5015521;28;20462;-74